Time;durP1;ratioP1;P1;durP2;ratioP2;P2;SDS_P1;SDS_P2;PMS_P1;PMS_P2;Temp;Humidity;BMP_temperature;BMP_pressure;BME280_temperature;BME280_humidity;BME280_pressure;Samples;Min_cycle;Max_cycle;Signal;HPM_P1;HPM_P2
2022/06/17 00:00:06;;;;;;;2.67;1.27;;;;;;;;;;4993291;28;20609;-70
2022/06/17 00:02:32;;;;;;;1.07;1.07;;;;;;;;;;5008462;28;20424;-68
2022/06/17 00:04:58;;;;;;;2.37;1.13;;;;;;;;;;5010497;28;20938;-71
2022/06/17 00:07:24;;;;;;;2.03;1.13;;;;;;;;;;5009692;28;20436;-69
2022/06/17 00:09:50;;;;;;;1.70;1.60;;;;;;;;;;5010183;28;20475;-67
2022/06/17 00:12:16;;;;;;;1.97;1.33;;;;;;;;;;5009708;28;20436;-69
2022/06/17 00:17:27;;;;;;;1.73;1.43;;;;;;;;;;5009729;28;20438;-67
2022/06/17 00:19:53;;;;;;;1.30;1.03;;;;;;;;;;5010354;28;21089;-69
2022/06/17 00:22:20;;;;;;;2.57;1.33;;;;;;;;;;5010636;28;20865;-67
2022/06/17 00:24:46;;;;;;;1.60;1.43;;;;;;;;;;5010545;28;20785;-71
2022/06/17 00:27:12;;;;;;;1.10;1.10;;;;;;;;;;5009503;28;20432;-71
2022/06/17 00:29:39;;;;;;;1.33;1.23;;;;;;;;;;5010130;28;20546;-71
2022/06/17 00:32:05;;;;;;;1.40;1.40;;;;;;;;;;5009929;28;20459;-69
2022/06/17 00:34:31;;;;;;;1.10;1.10;;;;;;;;;;5009951;28;20440;-69
2022/06/17 00:36:58;;;;;;;2.27;1.00;;;;;;;;;;5009508;28;20503;-67
2022/06/17 00:39:27;;;;;;;1.40;1.40;;;;;;;;;;5009568;28;20496;-68
2022/06/17 00:41:54;;;;;;;9.47;1.67;;;;;;;;;;5008862;28;20442;-67
2022/06/17 00:44:30;;;;;;;1.33;1.17;;;;;;;;;;5009618;28;20436;-70
2022/06/17 00:47:00;;;;;;;1.20;1.10;;;;;;;;;;5009059;28;20470;-66
2022/06/17 00:49:38;;;;;;;1.40;0.87;;;;;;;;;;5009877;28;20467;-67
2022/06/17 00:52:06;;;;;;;5.23;1.60;;;;;;;;;;5009996;28;20442;-66
2022/06/17 00:54:39;;;;;;;1.13;1.13;;;;;;;;;;5010396;28;20881;-66
2022/06/17 00:57:20;;;;;;;1.00;1.00;;;;;;;;;;5009768;28;20440;-68
2022/06/17 01:00:19;;;;;;;1.30;1.30;;;;;;;;;;5009916;28;20530;-68
2022/06/17 01:02:47;;;;;;;1.03;1.03;;;;;;;;;;4997234;28;20425;-70
2022/06/17 01:05:13;;;;;;;2.73;1.30;;;;;;;;;;5009454;28;20448;-69
2022/06/17 01:07:42;;;;;;;1.10;1.10;;;;;;;;;;5009202;28;20442;-67
2022/06/17 01:10:11;;;;;;;1.43;1.27;;;;;;;;;;5009467;28;21006;-67
2022/06/17 01:12:40;;;;;;;1.53;1.53;;;;;;;;;;5009795;28;20924;-67
2022/06/17 01:15:07;;;;;;;2.67;1.10;;;;;;;;;;5009365;28;20911;-69
2022/06/17 01:17:35;;;;;;;4.07;1.13;;;;;;;;;;5008714;28;20510;-69
2022/06/17 01:20:03;;;;;;;2.77;1.20;;;;;;;;;;5009187;28;20863;-71
2022/06/17 01:22:35;;;;;;;4.43;1.10;;;;;;;;;;5009846;28;20427;-71
2022/06/17 01:25:06;;;;;;;2.93;1.40;;;;;;;;;;4992436;28;20428;-69
2022/06/17 01:27:40;;;;;;;2.63;0.90;;;;;;;;;;5008641;28;20447;-69
2022/06/17 01:30:08;;;;;;;1.13;1.10;;;;;;;;;;5009381;28;20420;-67
2022/06/17 01:32:37;;;;;;;3.67;0.83;;;;;;;;;;5008736;28;20420;-68
2022/06/17 01:35:04;;;;;;;1.03;1.03;;;;;;;;;;5009687;28;20451;-66
2022/06/17 01:37:31;;;;;;;1.63;1.63;;;;;;;;;;5008875;28;20439;-70
2022/06/17 01:39:57;;;;;;;0.93;0.93;;;;;;;;;;5009245;28;20483;-65
2022/06/17 01:42:24;;;;;;;0.70;0.70;;;;;;;;;;5009363;28;20424;-67
2022/06/17 01:44:53;;;;;;;1.17;1.17;;;;;;;;;;5009431;28;20432;-68
2022/06/17 01:47:22;;;;;;;1.53;1.13;;;;;;;;;;5008326;28;20443;-70
2022/06/17 01:49:52;;;;;;;1.60;1.50;;;;;;;;;;5009090;28;20511;-69
2022/06/17 01:52:38;;;;;;;1.03;0.90;;;;;;;;;;5009812;28;20436;-69
2022/06/17 01:55:20;;;;;;;2.07;1.23;;;;;;;;;;5009580;28;20466;-70
2022/06/17 01:57:49;;;;;;;1.10;1.10;;;;;;;;;;5008773;28;20432;-68
2022/06/17 02:00:20;;;;;;;1.10;0.90;;;;;;;;;;5008420;28;21050;-69
2022/06/17 02:02:48;;;;;;;1.20;1.20;;;;;;;;;;5008526;28;20928;-65
2022/06/17 02:05:14;;;;;;;0.80;0.80;;;;;;;;;;5009213;28;20440;-68
2022/06/17 02:07:40;;;;;;;1.20;1.20;;;;;;;;;;4990926;28;20970;-68
2022/06/17 02:10:06;;;;;;;1.43;1.37;;;;;;;;;;5009042;28;20439;-66
2022/06/17 02:12:32;;;;;;;1.20;1.20;;;;;;;;;;5009464;28;20432;-68
2022/06/17 02:14:58;;;;;;;1.47;1.10;;;;;;;;;;5010619;28;20443;-67
2022/06/17 02:17:27;;;;;;;1.20;1.20;;;;;;;;;;5011823;28;20485;-66
2022/06/17 02:19:54;;;;;;;1.20;1.10;;;;;;;;;;5012422;28;20476;-69
2022/06/17 02:22:24;;;;;;;1.43;1.33;;;;;;;;;;5012917;28;20436;-69
2022/06/17 02:24:54;;;;;;;1.53;1.30;;;;;;;;;;5012910;28;20436;-69
2022/06/17 02:27:21;;;;;;;0.90;0.90;;;;;;;;;;5012249;28;20440;-70
2022/06/17 02:29:48;;;;;;;0.90;0.90;;;;;;;;;;5012018;28;20471;-70
2022/06/17 02:32:15;;;;;;;1.63;0.87;;;;;;;;;;5012216;28;20494;-67
2022/06/17 02:34:52;;;;;;;1.80;0.93;;;;;;;;;;5012529;28;20432;-71
2022/06/17 02:37:19;;;;;;;4.63;0.90;;;;;;;;;;5012290;28;20431;-70
2022/06/17 02:39:47;;;;;;;0.87;0.87;;;;;;;;;;5012060;28;20851;-68
2022/06/17 02:42:32;;;;;;;0.90;0.90;;;;;;;;;;5011444;28;21030;-69
2022/06/17 02:45:01;;;;;;;7.70;0.80;;;;;;;;;;5011790;28;20432;-71
2022/06/17 02:47:27;;;;;;;1.57;0.80;;;;;;;;;;5011259;28;20447;-69
2022/06/17 02:49:54;;;;;;;0.80;0.80;;;;;;;;;;5011558;28;20486;-66
2022/06/17 02:52:23;;;;;;;1.40;1.40;;;;;;;;;;5012361;28;20501;-66
2022/06/17 02:54:53;;;;;;;4.70;1.50;;;;;;;;;;5012111;28;20526;-67
2022/06/17 02:57:21;;;;;;;0.90;0.90;;;;;;;;;;5011828;28;20525;-68
2022/06/17 02:59:54;;;;;;;2.77;1.40;;;;;;;;;;4993933;28;20518;-67
2022/06/17 03:02:25;;;;;;;1.13;1.13;;;;;;;;;;5011239;28;20443;-68
2022/06/17 03:04:51;;;;;;;3.30;1.47;;;;;;;;;;5011189;28;20432;-69
2022/06/17 03:07:19;;;;;;;1.87;1.87;;;;;;;;;;5010827;28;20837;-70
2022/06/17 03:09:45;;;;;;;1.63;1.63;;;;;;;;;;5011578;28;20519;-68
2022/06/17 03:12:13;;;;;;;0.83;0.80;;;;;;;;;;5011575;28;20424;-70
2022/06/17 03:14:43;;;;;;;1.00;1.00;;;;;;;;;;5011559;28;20446;-66
2022/06/17 03:17:12;;;;;;;1.00;0.90;;;;;;;;;;5011016;28;20432;-69
2022/06/17 03:19:39;;;;;;;1.00;1.00;;;;;;;;;;5011937;28;20551;-66
2022/06/17 03:22:06;;;;;;;1.07;1.07;;;;;;;;;;5011169;28;20432;-70
2022/06/17 03:24:43;;;;;;;1.03;0.97;;;;;;;;;;5010923;28;20531;-66
2022/06/17 03:27:18;;;;;;;0.90;0.90;;;;;;;;;;5010497;28;20478;-66
2022/06/17 03:29:45;;;;;;;1.30;1.10;;;;;;;;;;5011566;28;20559;-67
2022/06/17 03:32:23;;;;;;;0.83;0.83;;;;;;;;;;5010407;28;20479;-70
2022/06/17 03:34:52;;;;;;;5.03;1.17;;;;;;;;;;5011520;28;20448;-66
2022/06/17 03:37:23;;;;;;;1.47;1.47;;;;;;;;;;5010468;28;20432;-70
2022/06/17 03:39:51;;;;;;;7.53;1.60;;;;;;;;;;5011269;28;20479;-66
2022/06/17 03:42:20;;;;;;;1.43;1.40;;;;;;;;;;5010808;28;20436;-65
2022/06/17 03:44:58;;;;;;;1.27;1.27;;;;;;;;;;5010591;28;20428;-69
2022/06/17 03:47:43;;;;;;;2.37;0.87;;;;;;;;;;5010543;28;20424;-70
2022/06/17 03:50:20;;;;;;;1.30;1.30;;;;;;;;;;5010926;28;20463;-68
2022/06/17 03:52:53;;;;;;;1.90;1.37;;;;;;;;;;5010685;28;20435;-69
2022/06/17 03:55:21;;;;;;;1.53;1.37;;;;;;;;;;4993469;28;20947;-70
2022/06/17 03:57:51;;;;;;;1.90;1.80;;;;;;;;;;5010542;28;20423;-65
2022/06/17 04:00:41;;;;;;;1.47;1.27;;;;;;;;;;5009997;28;20497;-67
2022/06/17 04:03:21;;;;;;;1.90;1.90;;;;;;;;;;5007769;28;20432;-65
2022/06/17 04:05:53;;;;;;;1.70;1.60;;;;;;;;;;5010350;28;20467;-65
2022/06/17 04:08:19;;;;;;;11.83;1.93;;;;;;;;;;5010438;28;20436;-69
2022/06/17 04:10:45;;;;;;;1.60;1.60;;;;;;;;;;5010639;28;20432;-69
2022/06/17 04:13:14;;;;;;;2.47;1.93;;;;;;;;;;5010688;28;20495;-69
2022/06/17 04:15:49;;;;;;;2.73;1.63;;;;;;;;;;5010334;28;20801;-65
2022/06/17 04:18:15;;;;;;;1.60;1.50;;;;;;;;;;5010285;28;20447;-70
2022/06/17 04:20:41;;;;;;;3.63;2.33;;;;;;;;;;5009831;28;20488;-70
2022/06/17 04:23:14;;;;;;;2.70;1.73;;;;;;;;;;5010353;28;20423;-69
2022/06/17 04:25:46;;;;;;;1.57;1.40;;;;;;;;;;5010165;28;20440;-67
2022/06/17 04:28:14;;;;;;;1.90;1.43;;;;;;;;;;5010168;28;20493;-68
2022/06/17 04:30:43;;;;;;;1.83;1.73;;;;;;;;;;5009884;28;20424;-66
2022/06/17 04:33:29;;;;;;;1.80;1.80;;;;;;;;;;5010006;28;20440;-66
2022/06/17 04:35:59;;;;;;;1.30;1.30;;;;;;;;;;5010209;28;20440;-68
2022/06/17 04:38:26;;;;;;;1.37;1.37;;;;;;;;;;5009927;28;20431;-69
2022/06/17 04:40:54;;;;;;;4.23;2.40;;;;;;;;;;5009874;28;20436;-70
2022/06/17 04:43:29;;;;;;;1.60;1.37;;;;;;;;;;5009724;28;20424;-65
2022/06/17 04:46:05;;;;;;;3.80;1.63;;;;;;;;;;5009984;28;20493;-69
2022/06/17 04:48:31;;;;;;;1.93;1.40;;;;;;;;;;5009576;28;20447;-70
2022/06/17 04:50:58;;;;;;;1.90;1.30;;;;;;;;;;5009360;28;20460;-71
2022/06/17 04:53:24;;;;;;;2.00;1.90;;;;;;;;;;5009886;28;20448;-68
2022/06/17 04:55:50;;;;;;;1.80;1.70;;;;;;;;;;5009643;28;20451;-69
2022/06/17 04:58:18;;;;;;;2.13;2.13;;;;;;;;;;5009542;28;20534;-68
2022/06/17 05:00:45;;;;;;;1.90;1.77;;;;;;;;;;5008737;28;20574;-67
2022/06/17 05:03:11;;;;;;;3.30;1.60;;;;;;;;;;5010056;28;20974;-71
2022/06/17 05:05:39;;;;;;;1.70;1.70;;;;;;;;;;5009590;28;20469;-67
2022/06/17 05:08:07;;;;;;;2.00;1.90;;;;;;;;;;5008757;28;20436;-70
2022/06/17 05:10:34;;;;;;;1.73;1.63;;;;;;;;;;5008770;28;20523;-73
2022/06/17 05:13:00;;;;;;;1.83;1.60;;;;;;;;;;5009735;28;20448;-69
2022/06/17 05:15:27;;;;;;;2.00;1.90;;;;;;;;;;5009450;28;20444;-74
2022/06/17 05:17:54;;;;;;;3.03;1.87;;;;;;;;;;5009205;28;20675;-72
2022/06/17 05:20:21;;;;;;;1.50;1.40;;;;;;;;;;5009459;28;21061;-71
2022/06/17 05:22:56;;;;;;;3.07;1.80;;;;;;;;;;5009791;28;20427;-72
2022/06/17 05:25:24;;;;;;;4.10;1.20;;;;;;;;;;5008526;28;20440;-73
2022/06/17 05:27:50;;;;;;;8.10;1.60;;;;;;;;;;5005502;28;20429;-67
2022/06/17 05:30:16;;;;;;;1.50;1.50;;;;;;;;;;5008144;28;20485;-71
2022/06/17 05:32:45;;;;;;;7.10;1.80;;;;;;;;;;4991271;28;20935;-73
2022/06/17 05:35:11;;;;;;;1.37;1.27;;;;;;;;;;4991545;28;20852;-71
2022/06/17 05:37:37;;;;;;;1.60;1.60;;;;;;;;;;5008911;28;20428;-72
2022/06/17 05:40:03;;;;;;;2.63;1.50;;;;;;;;;;5009034;28;21037;-75
2022/06/17 05:42:30;;;;;;;4.03;2.13;;;;;;;;;;5009165;28;20526;-67
2022/06/17 05:44:56;;;;;;;2.53;1.60;;;;;;;;;;5009546;28;20443;-67
2022/06/17 05:47:22;;;;;;;6.90;2.60;;;;;;;;;;5008345;28;20853;-66
2022/06/17 05:49:48;;;;;;;2.53;2.23;;;;;;;;;;5010386;28;20574;-66
2022/06/17 05:52:14;;;;;;;3.63;2.20;;;;;;;;;;5013403;28;20424;-66
2022/06/17 05:54:40;;;;;;;4.67;1.80;;;;;;;;;;5013017;28;20436;-66
2022/06/17 05:57:07;;;;;;;1.77;1.77;;;;;;;;;;5012621;28;20435;-66
2022/06/17 05:59:32;;;;;;;1.70;1.60;;;;;;;;;;5012205;28;20593;-67
2022/06/17 06:01:58;;;;;;;1.80;1.70;;;;;;;;;;5011752;28;21333;-65
2022/06/17 06:04:26;;;;;;;1.67;1.67;;;;;;;;;;5012921;28;20806;-66
2022/06/17 06:06:52;;;;;;;1.27;1.27;;;;;;;;;;4940955;28;20465;-65
2022/06/17 06:09:18;;;;;;;1.60;1.50;;;;;;;;;;4972023;28;20429;-67
2022/06/17 06:11:44;;;;;;;3.47;1.40;;;;;;;;;;4973515;28;20429;-66
2022/06/17 06:14:10;;;;;;;2.43;2.23;;;;;;;;;;4973525;28;20481;-65
2022/06/17 06:16:38;;;;;;;1.80;1.70;;;;;;;;;;4973739;28;20864;-67
2022/06/17 06:19:04;;;;;;;3.70;1.30;;;;;;;;;;4973047;28;20809;-65
2022/06/17 06:21:30;;;;;;;4.27;3.97;;;;;;;;;;4970795;28;20960;-64
2022/06/17 06:23:56;;;;;;;2.87;1.17;;;;;;;;;;4971095;28;20425;-65
2022/06/17 06:26:23;;;;;;;2.33;1.23;;;;;;;;;;4971348;28;20492;-65
2022/06/17 06:28:49;;;;;;;3.33;1.33;;;;;;;;;;4972312;28;20500;-69
2022/06/17 06:31:22;;;;;;;0.93;0.93;;;;;;;;;;4971059;28;20449;-65
2022/06/17 06:33:48;;;;;;;1.47;1.20;;;;;;;;;;4973046;28;20485;-65
2022/06/17 06:36:14;;;;;;;1.67;1.57;;;;;;;;;;4973331;28;20841;-67
2022/06/17 06:38:40;;;;;;;1.40;1.30;;;;;;;;;;4973154;28;20470;-67
2022/06/17 06:41:06;;;;;;;3.83;2.30;;;;;;;;;;4973159;28;21069;-66
2022/06/17 06:43:33;;;;;;;1.47;1.37;;;;;;;;;;4971376;28;20464;-65
2022/06/17 06:45:59;;;;;;;4.63;1.40;;;;;;;;;;4971272;28;20430;-66
2022/06/17 06:48:26;;;;;;;0.93;0.93;;;;;;;;;;4971464;28;20445;-66
2022/06/17 06:50:52;;;;;;;1.23;1.20;;;;;;;;;;4972047;28;20469;-66
2022/06/17 06:53:18;;;;;;;2.83;2.47;;;;;;;;;;4971589;28;20481;-69
2022/06/17 06:55:45;;;;;;;1.10;1.10;;;;;;;;;;4973089;28;20821;-66
2022/06/17 06:58:14;;;;;;;4.87;1.60;;;;;;;;;;4972972;28;20430;-66
2022/06/17 07:00:42;;;;;;;3.10;1.83;;;;;;;;;;4970514;28;20485;-65
2022/06/17 07:03:08;;;;;;;2.77;1.03;;;;;;;;;;4971200;28;20430;-69
2022/06/17 07:05:36;;;;;;;1.23;1.10;;;;;;;;;;4972298;28;20471;-67
2022/06/17 07:08:02;;;;;;;2.73;2.53;;;;;;;;;;4972530;28;20593;-67
2022/06/17 07:10:32;;;;;;;1.30;1.27;;;;;;;;;;4972800;28;20430;-67
2022/06/17 07:12:58;;;;;;;1.27;1.27;;;;;;;;;;4972790;28;20476;-69
2022/06/17 07:15:24;;;;;;;1.53;1.43;;;;;;;;;;4971788;28;20536;-67
2022/06/17 07:17:59;;;;;;;2.00;1.30;;;;;;;;;;4972429;28;20201;-67
2022/06/17 07:20:26;;;;;;;2.23;1.43;;;;;;;;;;4972235;28;20500;-65
2022/06/17 07:22:52;;;;;;;1.23;1.23;;;;;;;;;;4972165;28;20434;-66
2022/06/17 07:25:19;;;;;;;1.60;1.50;;;;;;;;;;4953071;28;20442;-67
2022/06/17 07:27:45;;;;;;;1.40;1.40;;;;;;;;;;4971420;28;20425;-65
2022/06/17 07:30:15;;;;;;;7.07;1.40;;;;;;;;;;4971157;28;21004;-69
2022/06/17 07:32:42;;;;;;;1.83;1.73;;;;;;;;;;4970940;28;20917;-66
2022/06/17 07:35:08;;;;;;;1.80;1.60;;;;;;;;;;4971300;28;20933;-66
2022/06/17 07:40:19;;;;;;;3.57;3.10;;;;;;;;;;4971726;28;20521;-66
2022/06/17 07:42:45;;;;;;;4.53;2.10;;;;;;;;;;4972441;28;20466;-65
2022/06/17 07:45:13;;;;;;;1.30;1.30;;;;;;;;;;4971807;28;20438;-68
2022/06/17 07:47:42;;;;;;;3.23;1.40;;;;;;;;;;4972052;28;20430;-66
2022/06/17 07:50:11;;;;;;;2.63;1.40;;;;;;;;;;4971585;28;20564;-66
2022/06/17 07:52:37;;;;;;;1.30;1.30;;;;;;;;;;4971176;28;20922;-68
2022/06/17 07:55:03;;;;;;;2.30;2.10;;;;;;;;;;4972252;28;20440;-68
2022/06/17 07:57:29;;;;;;;1.93;1.83;;;;;;;;;;4971615;28;20437;-66
2022/06/17 07:59:56;;;;;;;1.80;1.80;;;;;;;;;;4971130;28;20552;-66
2022/06/17 08:02:21;;;;;;;1.73;1.70;;;;;;;;;;4971628;28;20430;-66
2022/06/17 08:04:48;;;;;;;2.13;1.80;;;;;;;;;;4971797;28;20426;-66
2022/06/17 08:07:14;;;;;;;2.43;1.63;;;;;;;;;;4971617;28;20187;-68
2022/06/17 08:09:40;;;;;;;4.73;1.33;;;;;;;;;;4971664;28;20445;-68
2022/06/17 08:12:08;;;;;;;2.57;2.00;;;;;;;;;;4971487;28;20427;-67
2022/06/17 08:14:35;;;;;;;3.63;3.33;;;;;;;;;;4971618;28;20856;-67
2022/06/17 08:17:01;;;;;;;1.53;1.43;;;;;;;;;;4971058;28;20872;-66
2022/06/17 08:19:27;;;;;;;1.40;1.40;;;;;;;;;;4970264;28;20846;-66
2022/06/17 08:21:53;;;;;;;1.87;1.77;;;;;;;;;;4969795;28;20430;-66
2022/06/17 08:24:19;;;;;;;3.40;1.93;;;;;;;;;;4969770;28;20824;-65
2022/06/17 08:26:45;;;;;;;1.73;1.70;;;;;;;;;;4969843;28;20850;-66
2022/06/17 08:29:11;;;;;;;4.93;2.13;;;;;;;;;;4970825;28;20241;-66
2022/06/17 08:31:37;;;;;;;2.30;2.20;;;;;;;;;;4969668;28;20430;-66
2022/06/17 08:34:03;;;;;;;1.80;1.80;;;;;;;;;;4970768;28;20789;-65
2022/06/17 08:36:29;;;;;;;2.30;1.90;;;;;;;;;;4970437;28;20429;-66
2022/06/17 08:38:59;;;;;;;2.10;2.10;;;;;;;;;;4970163;28;20482;-67
2022/06/17 08:41:25;;;;;;;4.60;2.00;;;;;;;;;;4969961;28;20520;-67
2022/06/17 08:44:06;;;;;;;2.53;2.43;;;;;;;;;;4971388;28;20461;-66
2022/06/17 08:46:50;;;;;;;2.10;2.00;;;;;;;;;;4971049;28;20434;-66
2022/06/17 08:49:22;;;;;;;1.83;1.73;;;;;;;;;;4969504;28;20465;-66
2022/06/17 08:51:57;;;;;;;2.57;2.17;;;;;;;;;;4970492;28;20436;-66
2022/06/17 08:54:36;;;;;;;1.83;1.73;;;;;;;;;;4969638;28;20444;-66
2022/06/17 08:57:07;;;;;;;3.40;2.13;;;;;;;;;;4969614;28;20441;-67
2022/06/17 08:59:33;;;;;;;1.80;1.80;;;;;;;;;;4970849;28;21002;-66
2022/06/17 09:02:20;;;;;;;1.60;1.50;;;;;;;;;;4969102;28;20468;-66
2022/06/17 09:04:53;;;;;;;7.97;4.20;;;;;;;;;;4970281;28;20441;-67
2022/06/17 09:07:22;;;;;;;2.47;2.37;;;;;;;;;;4970580;28;20438;-68
2022/06/17 09:09:48;;;;;;;2.17;2.17;;;;;;;;;;4971063;28;20976;-66
2022/06/17 09:12:28;;;;;;;3.53;2.20;;;;;;;;;;4970785;28;20450;-67
2022/06/17 09:15:16;;;;;;;2.73;1.60;;;;;;;;;;4970399;28;20664;-67
2022/06/17 09:17:57;;;;;;;6.03;2.03;;;;;;;;;;4970520;28;20434;-66
2022/06/17 09:20:40;;;;;;;1.83;1.83;;;;;;;;;;4969739;28;20524;-69
2022/06/17 09:23:07;;;;;;;3.47;2.10;;;;;;;;;;4970708;28;20430;-66
2022/06/17 09:25:37;;;;;;;2.10;2.10;;;;;;;;;;4969218;28;20872;-70
2022/06/17 09:28:03;;;;;;;3.50;2.00;;;;;;;;;;4970234;28;20508;-66
2022/06/17 09:30:34;;;;;;;2.03;2.03;;;;;;;;;;4970219;28;20462;-67
2022/06/17 09:33:22;;;;;;;9.40;2.20;;;;;;;;;;4970221;28;20464;-66
2022/06/17 09:35:48;;;;;;;1.40;1.40;;;;;;;;;;4969821;28;20455;-66
2022/06/17 09:38:21;;;;;;;1.67;1.30;;;;;;;;;;4970411;28;20835;-67
2022/06/17 09:40:50;;;;;;;1.30;1.30;;;;;;;;;;4969597;28;20229;-66
2022/06/17 09:43:33;;;;;;;2.40;2.30;;;;;;;;;;4968240;28;20937;-66
2022/06/17 09:46:05;;;;;;;3.03;2.30;;;;;;;;;;4969932;28;20442;-67
2022/06/17 09:48:34;;;;;;;6.73;2.00;;;;;;;;;;4969661;28;20509;-66
2022/06/17 09:51:18;;;;;;;2.00;1.80;;;;;;;;;;4969426;28;20493;-65
2022/06/17 09:53:44;;;;;;;9.17;2.73;;;;;;;;;;4968905;28;20449;-67
2022/06/17 09:56:17;;;;;;;2.23;2.13;;;;;;;;;;4969916;28;20957;-65
2022/06/17 09:58:47;;;;;;;2.90;1.40;;;;;;;;;;4969785;28;20449;-65
2022/06/17 10:01:14;;;;;;;1.63;1.63;;;;;;;;;;4967783;28;20446;-66
2022/06/17 10:03:40;;;;;;;1.63;1.50;;;;;;;;;;4968934;28;20457;-66
2022/06/17 10:06:21;;;;;;;1.27;1.27;;;;;;;;;;4970069;28;20794;-65
2022/06/17 10:08:59;;;;;;;4.03;1.63;;;;;;;;;;4963530;28;20472;-65
2022/06/17 10:11:32;;;;;;;3.37;2.07;;;;;;;;;;4968981;28;21009;-65
2022/06/17 10:14:07;;;;;;;7.40;1.50;;;;;;;;;;4968843;28;20946;-65
2022/06/17 10:20:01;;;;;;;1.73;1.73;;;;;;;;;;4970512;28;20500;-65
2022/06/17 10:22:51;;;;;;;1.47;1.47;;;;;;;;;;4947836;28;20430;-66
2022/06/17 10:25:17;;;;;;;1.87;1.87;;;;;;;;;;4970149;28;20442;-68
2022/06/17 10:27:49;;;;;;;1.53;1.43;;;;;;;;;;4969932;28;20440;-64
2022/06/17 10:30:34;;;;;;;1.77;1.70;;;;;;;;;;4969789;28;20932;-67
2022/06/17 10:33:00;;;;;;;1.87;1.77;;;;;;;;;;4967614;28;20934;-65
2022/06/17 10:35:31;;;;;;;1.77;1.70;;;;;;;;;;4970201;28;20444;-65
2022/06/17 10:37:59;;;;;;;2.20;2.00;;;;;;;;;;4972281;28;20422;-65
2022/06/17 10:40:27;;;;;;;2.87;2.23;;;;;;;;;;4972566;28;20485;-65
2022/06/17 10:42:55;;;;;;;7.27;1.77;;;;;;;;;;4973530;28;20944;-65
2022/06/17 10:45:21;;;;;;;2.07;2.07;;;;;;;;;;4973233;28;21031;-65
2022/06/17 10:47:47;;;;;;;1.73;1.73;;;;;;;;;;4972838;28;20445;-66
2022/06/17 10:50:17;;;;;;;1.60;1.37;;;;;;;;;;4973090;28;20812;-68
2022/06/17 10:52:49;;;;;;;1.43;1.33;;;;;;;;;;4973069;28;20944;-66
2022/06/17 10:55:18;;;;;;;1.60;1.60;;;;;;;;;;4973044;28;20464;-68
2022/06/17 10:58:04;;;;;;;1.90;1.90;;;;;;;;;;4972052;28;20442;-70
2022/06/17 11:00:32;;;;;;;4.37;1.90;;;;;;;;;;4972491;28;20500;-66
2022/06/17 11:03:14;;;;;;;2.40;1.30;;;;;;;;;;4972206;28;20568;-68
2022/06/17 11:05:40;;;;;;;2.27;2.03;;;;;;;;;;4972159;28;20524;-67
2022/06/17 11:08:19;;;;;;;10.50;2.07;;;;;;;;;;4972460;28;20462;-69
2022/06/17 11:10:51;;;;;;;1.53;1.23;;;;;;;;;;4971731;28;20921;-69
2022/06/17 11:13:17;;;;;;;5.77;1.90;;;;;;;;;;4972384;28;20534;-66
2022/06/17 11:15:48;;;;;;;1.73;1.63;;;;;;;;;;4972053;28;20537;-65
2022/06/17 11:18:15;;;;;;;2.67;1.67;;;;;;;;;;4969898;28;20438;-66
2022/06/17 11:20:51;;;;;;;1.27;1.27;;;;;;;;;;4972324;28;20544;-65
2022/06/17 11:23:21;;;;;;;1.80;1.80;;;;;;;;;;4972218;28;20803;-65
2022/06/17 11:25:48;;;;;;;2.17;1.30;;;;;;;;;;4972040;28;20773;-66
2022/06/17 11:28:32;;;;;;;2.17;1.97;;;;;;;;;;4970563;28;20465;-67
2022/06/17 11:31:00;;;;;;;1.77;1.67;;;;;;;;;;4971765;28;20445;-66
2022/06/17 11:33:28;;;;;;;1.80;1.70;;;;;;;;;;4972739;28;20426;-66
2022/06/17 11:35:59;;;;;;;1.30;1.30;;;;;;;;;;4972461;28;20805;-66
2022/06/17 11:38:26;;;;;;;2.83;1.30;;;;;;;;;;4971800;28;20520;-66
2022/06/17 11:40:53;;;;;;;2.30;1.90;;;;;;;;;;4971173;28;21108;-67
2022/06/17 11:43:31;;;;;;;1.07;1.07;;;;;;;;;;4972445;28;20461;-67
2022/06/17 11:45:57;;;;;;;7.33;1.47;;;;;;;;;;4970608;28;20434;-68
2022/06/17 11:48:23;;;;;;;3.90;1.60;;;;;;;;;;4970839;28;20532;-66
2022/06/17 11:51:00;;;;;;;1.73;1.40;;;;;;;;;;4966621;28;20481;-66
2022/06/17 11:53:27;;;;;;;5.17;1.87;;;;;;;;;;4971713;28;20799;-65
2022/06/17 11:55:53;;;;;;;1.70;1.60;;;;;;;;;;4971870;28;20426;-67
2022/06/17 11:58:20;;;;;;;1.80;1.63;;;;;;;;;;4971548;28;20442;-66
2022/06/17 12:00:51;;;;;;;1.80;1.80;;;;;;;;;;4970291;28;20485;-66
2022/06/17 12:03:37;;;;;;;2.13;1.93;;;;;;;;;;4970433;28;20438;-66
2022/06/17 12:06:05;;;;;;;2.97;2.80;;;;;;;;;;4964132;28;21539;-69
2022/06/17 12:08:54;;;;;;;1.80;1.70;;;;;;;;;;4970821;28;20477;-66
2022/06/17 12:11:28;;;;;;;1.83;1.63;;;;;;;;;;4970419;28;20430;-65
2022/06/17 12:13:57;;;;;;;0.90;0.90;;;;;;;;;;4971592;28;20441;-67
2022/06/17 12:16:38;;;;;;;1.83;1.80;;;;;;;;;;4971237;28;20430;-69
2022/06/17 12:19:09;;;;;;;1.80;1.50;;;;;;;;;;4971365;28;20937;-65
2022/06/17 12:21:54;;;;;;;3.60;2.00;;;;;;;;;;4968539;28;20433;-66
2022/06/17 12:24:29;;;;;;;5.53;2.00;;;;;;;;;;4971318;28;21060;-66
2022/06/17 12:27:06;;;;;;;1.50;1.50;;;;;;;;;;4969885;28;20996;-66
2022/06/17 12:29:36;;;;;;;2.97;1.60;;;;;;;;;;4970597;28;20930;-65
2022/06/17 12:32:02;;;;;;;2.50;1.43;;;;;;;;;;4970860;28;21684;-66
2022/06/17 12:34:54;;;;;;;1.90;1.80;;;;;;;;;;4971400;28;21162;-65
2022/06/17 12:37:23;;;;;;;5.60;1.77;;;;;;;;;;4966843;28;20206;-66
2022/06/17 12:39:58;;;;;;;1.40;1.40;;;;;;;;;;4969501;28;20516;-65
2022/06/17 12:42:28;;;;;;;1.33;1.33;;;;;;;;;;4970319;28;20524;-65
2022/06/17 12:45:00;;;;;;;1.40;1.30;;;;;;;;;;4968798;28;20503;-69
2022/06/17 12:47:45;;;;;;;1.90;1.80;;;;;;;;;;4965522;28;20488;-65
2022/06/17 12:53:14;;;;;;;3.30;1.67;;;;;;;;;;4968008;28;20458;-65
2022/06/17 12:55:43;;;;;;;8.03;1.87;;;;;;;;;;4969730;28;20526;-66
2022/06/17 12:58:09;;;;;;;4.00;1.43;;;;;;;;;;4968421;28;20972;-65
2022/06/17 13:00:41;;;;;;;4.57;1.50;;;;;;;;;;4968419;28;20488;-65
2022/06/17 13:03:24;;;;;;;3.50;1.57;;;;;;;;;;4969796;28;20722;-66
2022/06/17 13:05:50;;;;;;;6.50;1.33;;;;;;;;;;4970653;28;20504;-66
2022/06/17 13:08:34;;;;;;;1.80;1.70;;;;;;;;;;4969819;28;20470;-66
2022/06/17 13:11:03;;;;;;;3.60;1.70;;;;;;;;;;4969682;28;20473;-67
2022/06/17 13:13:38;;;;;;;2.17;1.13;;;;;;;;;;4969947;28;20434;-66
2022/06/17 13:16:07;;;;;;;7.00;2.20;;;;;;;;;;4969927;28;20437;-69
2022/06/17 13:18:50;;;;;;;2.03;1.93;;;;;;;;;;4969729;28;20448;-66
2022/06/17 13:21:16;;;;;;;1.30;1.30;;;;;;;;;;4968613;28;20454;-66
2022/06/17 13:23:56;;;;;;;1.60;1.60;;;;;;;;;;4970487;28;20504;-65
2022/06/17 13:26:31;;;;;;;1.53;1.50;;;;;;;;;;4969501;28;20277;-65
2022/06/17 13:29:01;;;;;;;2.07;1.97;;;;;;;;;;4969663;28;20441;-66
2022/06/17 13:31:37;;;;;;;1.27;1.27;;;;;;;;;;4967983;28;20433;-72
2022/06/17 13:34:05;;;;;;;1.37;1.37;;;;;;;;;;4968879;28;20436;-73
2022/06/17 13:36:38;;;;;;;1.43;1.30;;;;;;;;;;4968523;28;20962;-67
2022/06/17 13:39:07;;;;;;;7.80;7.13;;;;;;;;;;4967878;28;20501;-69
2022/06/17 13:41:52;;;;;;;1.60;1.00;;;;;;;;;;4968286;28;20501;-67
2022/06/17 13:44:30;;;;;;;4.90;1.50;;;;;;;;;;4968958;28;20968;-66
2022/06/17 13:47:06;;;;;;;1.47;1.33;;;;;;;;;;4969097;28;20434;-70
2022/06/17 13:49:38;;;;;;;2.07;2.00;;;;;;;;;;4969177;28;20473;-66
2022/06/17 13:52:27;;;;;;;2.67;1.17;;;;;;;;;;4970538;28;20458;-66
2022/06/17 13:55:00;;;;;;;1.33;1.33;;;;;;;;;;4970550;28;20433;-65
2022/06/17 13:57:33;;;;;;;1.50;1.40;;;;;;;;;;4970520;28;20429;-66
2022/06/17 14:00:19;;;;;;;1.10;1.10;;;;;;;;;;4969960;28;20504;-69
2022/06/17 14:02:55;;;;;;;1.60;1.50;;;;;;;;;;4970645;28;20417;-65
2022/06/17 14:05:28;;;;;;;1.33;1.33;;;;;;;;;;4970580;28;20445;-67
2022/06/17 14:07:55;;;;;;;1.60;1.33;;;;;;;;;;4970087;28;20948;-68
2022/06/17 14:10:47;;;;;;;1.43;1.43;;;;;;;;;;4970907;28;20433;-66
2022/06/17 14:13:16;;;;;;;4.67;1.40;;;;;;;;;;4955060;28;20852;-69
2022/06/17 14:15:47;;;;;;;1.30;1.30;;;;;;;;;;4974002;28;20436;-65
2022/06/17 14:18:21;;;;;;;1.97;1.87;;;;;;;;;;4973841;28;21034;-66
2022/06/17 14:20:56;;;;;;;1.40;1.40;;;;;;;;;;4972207;28;20485;-66
2022/06/17 14:23:22;;;;;;;1.60;1.50;;;;;;;;;;4974141;28;20432;-67
2022/06/17 14:25:50;;;;;;;5.03;1.90;;;;;;;;;;4974157;28;20433;-67
2022/06/17 14:28:34;;;;;;;2.87;1.17;;;;;;;;;;4973721;28;20525;-66
2022/06/17 14:31:15;;;;;;;1.70;1.53;;;;;;;;;;4973407;28;20428;-66
2022/06/17 14:33:43;;;;;;;1.30;1.30;;;;;;;;;;4973931;28;20448;-66
2022/06/17 14:36:14;;;;;;;1.17;1.17;;;;;;;;;;4973781;28;20426;-69
2022/06/17 14:38:42;;;;;;;1.37;1.37;;;;;;;;;;4973219;28;20433;-66
2022/06/17 14:44:18;;;;;;;1.50;1.50;;;;;;;;;;4973527;28;20453;-68
2022/06/17 14:47:02;;;;;;;5.87;1.57;;;;;;;;;;4973306;28;20430;-67
2022/06/17 14:49:43;;;;;;;1.50;1.50;;;;;;;;;;4973481;28;20587;-70
2022/06/17 14:52:26;;;;;;;1.93;1.83;;;;;;;;;;4973100;28;20485;-67
2022/06/17 14:54:59;;;;;;;1.13;1.13;;;;;;;;;;4973535;28;20422;-65
2022/06/17 14:57:25;;;;;;;1.40;1.40;;;;;;;;;;4973074;28;20905;-66
2022/06/17 14:59:59;;;;;;;2.07;1.90;;;;;;;;;;4972901;28;20477;-69
2022/06/17 15:02:39;;;;;;;2.07;1.90;;;;;;;;;;4972626;28;20434;-68
2022/06/17 15:05:06;;;;;;;4.30;1.20;;;;;;;;;;4973348;28;20429;-66
2022/06/17 15:07:40;;;;;;;7.40;1.30;;;;;;;;;;4973216;28;20454;-66
2022/06/17 15:10:17;;;;;;;1.20;1.20;;;;;;;;;;4973158;28;20464;-66
2022/06/17 15:12:53;;;;;;;1.73;1.57;;;;;;;;;;4973171;28;20909;-67
2022/06/17 15:15:27;;;;;;;2.23;1.30;;;;;;;;;;4972952;28;20426;-67
2022/06/17 15:17:53;;;;;;;1.30;1.23;;;;;;;;;;4972710;28;20426;-67